createdAt,value
2019-05-29T00:02:24.264Z,77.56
2019-05-29T00:04:50.385Z,77.77
2019-05-29T00:07:16.490Z,77.97
2019-05-29T00:09:42.811Z,78.08
2019-05-29T00:12:11.894Z,78.22
2019-05-29T00:14:36.807Z,78.14
2019-05-29T00:17:02.928Z,78.09
2019-05-29T00:19:28.817Z,77.95
2019-05-29T00:21:54.854Z,78.04
2019-05-29T00:24:21.133Z,78.32
2019-05-29T00:26:47.192Z,78.70
2019-05-29T00:29:13.817Z,78.94
2019-05-29T00:31:39.916Z,79.20
2019-05-29T00:34:06.981Z,79.57
2019-05-29T00:36:32.930Z,79.72
2019-05-29T00:38:58.835Z,79.27
2019-05-29T00:41:24.945Z,79.22
2019-05-29T00:43:51.082Z,79.33
2019-05-29T00:46:17.627Z,79.21
2019-05-29T00:48:43.595Z,79.09
2019-05-29T00:51:09.639Z,79.65
2019-05-29T00:53:35.642Z,79.50
2019-05-29T00:56:01.764Z,79.25
2019-05-29T00:58:27.882Z,79.45
2019-05-29T01:00:53.884Z,79.66
2019-05-29T01:03:19.858Z,80.46
2019-05-29T01:05:45.902Z,80.24
2019-05-29T01:08:12.578Z,80.36
2019-05-29T01:10:38.823Z,79.99
2019-05-29T01:13:04.835Z,80.16
2019-05-29T01:15:30.937Z,80.01
2019-05-29T01:17:56.850Z,79.94
2019-05-29T01:20:22.837Z,79.89
2019-05-29T01:22:48.862Z,79.66
2019-05-29T01:25:15.069Z,79.73
2019-05-29T01:27:41.197Z,80.16
2019-05-29T01:30:07.610Z,80.83
2019-05-29T01:32:33.506Z,80.73
2019-05-29T01:34:59.643Z,80.48
2019-05-29T01:37:26.465Z,80.38
2019-05-29T01:39:52.624Z,80.28
2019-05-29T01:42:19.455Z,80.07
2019-05-29T01:44:45.586Z,80.04
2019-05-29T01:47:11.480Z,80.40
2019-05-29T01:49:37.522Z,80.57
2019-05-29T01:52:03.624Z,80.41
2019-05-29T01:54:29.758Z,80.23
2019-05-29T01:56:55.796Z,80.17
2019-05-29T01:59:21.919Z,80.65
2019-05-29T02:01:48.016Z,81.00
2019-05-29T02:04:14.016Z,80.85
2019-05-29T02:06:40.045Z,80.92
2019-05-29T02:09:06.145Z,80.89
2019-05-29T02:11:32.436Z,80.71
2019-05-29T02:13:58.486Z,80.56
2019-05-29T02:16:24.948Z,80.55
2019-05-29T02:18:51.075Z,80.73
2019-05-29T02:21:17.995Z,81.00
2019-05-29T02:23:44.286Z,80.88
2019-05-29T02:26:10.413Z,80.67
2019-05-29T02:28:36.319Z,80.62
2019-05-29T02:31:02.471Z,80.29
2019-05-29T02:33:28.479Z,80.22
2019-05-29T02:35:54.622Z,80.26
2019-05-29T02:38:21.139Z,80.25
2019-05-29T02:40:48.672Z,80.53
2019-05-29T02:43:14.796Z,80.56
2019-05-29T02:45:53.803Z,80.40
2019-05-29T02:48:08.814Z,80.48
2019-05-29T02:50:34.825Z,80.67
2019-05-29T02:53:00.730Z,80.30
2019-05-29T02:55:27.045Z,80.11
2019-05-29T02:57:54.444Z,80.03
2019-05-29T03:00:25.790Z,80.03
2019-05-29T03:02:52.166Z,80.11
2019-05-29T03:05:18.258Z,79.94
2019-05-29T03:07:44.367Z,79.88
2019-05-29T03:10:10.667Z,79.89
2019-05-29T03:12:37.807Z,80.30
2019-05-29T03:15:05.016Z,80.37
2019-05-29T03:17:31.960Z,80.42
2019-05-29T03:19:58.066Z,80.26
2019-05-29T03:22:24.156Z,80.20
2019-05-29T03:24:50.168Z,80.24
2019-05-29T03:27:16.170Z,80.54
2019-05-29T03:29:42.083Z,80.78
2019-05-29T03:32:13.664Z,81.16
2019-05-29T03:34:42.377Z,81.62
2019-05-29T03:37:04.021Z,81.56
2019-05-29T03:39:30.451Z,82.54
2019-05-29T03:41:56.633Z,83.15
2019-05-29T03:44:22.667Z,83.55
2019-05-29T03:46:48.568Z,84.21
2019-05-29T03:49:14.604Z,84.82
2019-05-29T03:51:40.629Z,84.92
2019-05-29T03:54:06.634Z,84.61
2019-05-29T03:56:34.635Z,85.06
2019-05-29T03:59:00.771Z,84.91
2019-05-29T04:01:26.874Z,85.62
2019-05-29T04:03:52.826Z,85.64
2019-05-29T04:06:18.872Z,85.47
2019-05-29T04:08:44.968Z,85.59
2019-05-29T04:11:11.092Z,85.96
2019-05-29T04:13:38.909Z,86.15
2019-05-29T04:16:06.016Z,86.15
2019-05-29T04:18:33.945Z,86.37
2019-05-29T04:21:01.233Z,86.05
2019-05-29T04:23:32.109Z,85.47
2019-05-29T04:26:00.197Z,85.61
2019-05-29T04:28:27.900Z,85.63
2019-05-29T04:30:55.089Z,85.82
2019-05-29T04:33:21.006Z,85.44
2019-05-29T04:35:47.013Z,86.16
2019-05-29T04:38:13.048Z,86.36
2019-05-29T04:40:39.728Z,86.15
2019-05-29T04:43:05.969Z,86.19
2019-05-29T04:45:33.327Z,86.49
2019-05-29T04:47:59.991Z,86.49
2019-05-29T04:50:26.000Z,86.37
2019-05-29T04:52:51.916Z,85.99
2019-05-29T04:55:18.028Z,85.82
2019-05-29T04:57:43.971Z,85.17
2019-05-29T05:00:10.376Z,84.62
2019-05-29T05:02:37.276Z,84.47
2019-05-29T05:05:04.389Z,84.43
2019-05-29T05:07:31.156Z,84.23
2019-05-29T05:09:57.308Z,84.01
2019-05-29T05:12:23.415Z,83.97
2019-05-29T05:14:49.758Z,83.80
2019-05-29T05:17:25.774Z,83.88
2019-05-29T05:19:43.802Z,83.89
2019-05-29T05:22:09.918Z,84.04
2019-05-29T05:24:36.440Z,84.31
2019-05-29T05:27:02.770Z,84.74
2019-05-29T05:29:28.771Z,84.53
2019-05-29T05:31:54.875Z,84.30
2019-05-29T05:34:20.915Z,84.35
2019-05-29T05:36:47.087Z,84.38
2019-05-29T05:39:13.202Z,84.24
2019-05-29T05:41:39.199Z,84.12
2019-05-29T05:44:05.317Z,84.10
2019-05-29T05:46:32.927Z,84.02
2019-05-29T05:48:59.113Z,84.09
2019-05-29T05:51:25.128Z,83.97
2019-05-29T05:53:51.644Z,83.48
2019-05-29T05:56:17.755Z,82.92
2019-05-29T05:58:43.761Z,83.11
2019-05-29T06:01:09.866Z,82.76
2019-05-29T06:03:36.006Z,82.55
2019-05-29T06:06:02.092Z,82.51
2019-05-29T06:08:28.131Z,82.47
2019-05-29T06:10:54.136Z,82.54
2019-05-29T06:13:20.179Z,82.15
2019-05-29T06:15:46.113Z,82.24
2019-05-29T06:18:21.006Z,82.25
2019-05-29T06:20:40.968Z,81.79
2019-05-29T06:23:07.207Z,81.99
2019-05-29T06:25:34.419Z,81.70
2019-05-29T06:28:02.834Z,81.80
2019-05-29T06:30:28.945Z,81.56
2019-05-29T06:32:54.952Z,81.12
2019-05-29T06:35:21.100Z,81.47
2019-05-29T06:37:47.049Z,80.91
2019-05-29T06:40:16.973Z,80.87
2019-05-29T06:42:43.955Z,80.64
2019-05-29T06:45:10.946Z,80.64
2019-05-29T06:47:38.590Z,79.50
2019-05-29T06:50:05.700Z,79.35
2019-05-29T06:52:31.599Z,79.62
2019-05-29T06:54:57.531Z,79.37
2019-05-29T06:57:25.982Z,79.03
2019-05-29T06:59:51.491Z,78.89
2019-05-29T07:02:17.504Z,78.30
2019-05-29T07:04:44.655Z,78.69
2019-05-29T07:07:10.851Z,78.41
2019-05-29T07:09:36.931Z,78.15
2019-05-29T07:12:03.175Z,77.75
2019-05-29T07:14:29.218Z,77.74
2019-05-29T07:16:56.418Z,77.69
2019-05-29T07:19:28.165Z,77.81
2019-05-29T07:21:50.482Z,77.36
2019-05-29T07:24:16.603Z,77.64
2019-05-29T07:26:43.428Z,77.55
2019-05-29T07:29:09.921Z,76.76
2019-05-29T07:31:36.895Z,76.58
2019-05-29T07:34:03.037Z,76.71
2019-05-29T07:36:29.051Z,76.51
2019-05-29T07:39:02.965Z,76.52
2019-05-29T07:41:22.904Z,76.26
2019-05-29T07:43:48.900Z,76.07
2019-05-29T07:46:15.038Z,75.50
2019-05-29T07:48:42.628Z,76.07
2019-05-29T07:51:08.858Z,76.06
2019-05-29T07:53:36.067Z,76.05
2019-05-29T07:56:02.201Z,76.16
2019-05-29T07:58:28.324Z,76.12
2019-05-29T08:01:11.818Z,77.04
2019-05-29T08:03:22.352Z,77.61
2019-05-29T08:05:51.553Z,77.76
2019-05-29T08:08:16.479Z,78.35
2019-05-29T08:10:43.431Z,78.35
2019-05-29T08:13:09.585Z,78.60
2019-05-29T08:15:49.175Z,78.88
2019-05-29T08:18:03.612Z,78.59
2019-05-29T08:20:29.713Z,78.40
2019-05-29T08:22:55.714Z,77.87
2019-05-29T08:25:21.868Z,78.18
2019-05-29T08:27:48.895Z,78.25
2019-05-29T08:30:15.737Z,78.07
2019-05-29T08:32:43.650Z,78.36
2019-05-29T08:35:09.888Z,78.74
2019-05-29T08:37:35.841Z,78.33
2019-05-29T08:40:04.142Z,78.04
2019-05-29T08:42:30.059Z,78.22
2019-05-29T08:44:56.165Z,78.18
2019-05-29T08:47:22.308Z,77.94
2019-05-29T08:49:52.471Z,78.34
2019-05-29T08:52:16.393Z,78.47
2019-05-29T08:54:42.397Z,78.19
2019-05-29T08:57:08.405Z,78.15
2019-05-29T08:59:34.419Z,77.98
2019-05-29T09:02:00.535Z,77.80
2019-05-29T09:04:27.140Z,77.51
2019-05-29T09:06:53.580Z,77.76
2019-05-29T09:09:19.703Z,77.62
2019-05-29T09:11:47.378Z,77.70
2019-05-29T09:14:13.657Z,77.81
2019-05-29T09:16:39.761Z,77.36
2019-05-29T09:19:05.909Z,77.73
2019-05-29T09:21:32.016Z,77.75
2019-05-29T09:23:59.022Z,77.84
2019-05-29T09:26:26.122Z,78.25
2019-05-29T09:28:52.214Z,78.58
2019-05-29T09:31:19.021Z,78.64
2019-05-29T09:33:46.227Z,78.40
2019-05-29T09:36:12.161Z,78.11
2019-05-29T09:38:38.178Z,76.57
2019-05-29T09:41:04.311Z,77.01
2019-05-29T09:43:30.970Z,76.96
2019-05-29T09:45:57.023Z,76.82
2019-05-29T09:48:26.798Z,77.69
2019-05-29T09:50:51.050Z,77.45
2019-05-29T09:53:17.158Z,77.23
2019-05-29T09:55:43.263Z,76.89
2019-05-29T09:58:09.298Z,76.66
2019-05-29T10:00:35.305Z,76.71
2019-05-29T10:03:01.500Z,76.03
2019-05-29T10:05:27.648Z,76.48
2019-05-29T10:07:55.111Z,76.05
2019-05-29T10:10:21.956Z,76.37
2019-05-29T10:12:48.060Z,76.23
2019-05-29T10:15:15.679Z,76.15
2019-05-29T10:17:41.784Z,75.83
2019-05-29T10:20:09.681Z,75.93
2019-05-29T10:22:35.835Z,76.07
2019-05-29T10:25:04.008Z,76.18
2019-05-29T10:27:30.091Z,76.35
2019-05-29T10:29:56.130Z,76.91
2019-05-29T10:32:22.184Z,77.08
2019-05-29T10:34:48.506Z,77.22
2019-05-29T10:37:17.949Z,77.46
2019-05-29T10:39:42.894Z,77.31
2019-05-29T10:42:08.971Z,77.88
2019-05-29T10:44:35.049Z,77.21
2019-05-29T10:47:01.199Z,77.26
2019-05-29T10:49:27.258Z,77.25
2019-05-29T10:52:05.702Z,76.98
2019-05-29T10:54:21.470Z,76.72
2019-05-29T10:56:48.756Z,76.76
2019-05-29T10:59:14.919Z,77.19
2019-05-29T11:01:41.072Z,77.06
2019-05-29T11:04:07.099Z,77.28
2019-05-29T11:06:33.319Z,77.30
2019-05-29T11:08:59.395Z,76.80
2019-05-29T11:11:25.560Z,76.75
2019-05-29T11:13:52.835Z,77.06
2019-05-29T11:16:19.074Z,77.24
2019-05-29T11:18:45.174Z,77.51
2019-05-29T11:21:11.330Z,77.67
2019-05-29T11:23:38.339Z,77.26
2019-05-29T11:26:04.722Z,76.95
2019-05-29T11:28:30.787Z,76.84
2019-05-29T11:30:57.216Z,76.58
2019-05-29T11:33:23.274Z,76.82
2019-05-29T11:36:00.947Z,77.23
2019-05-29T11:38:17.405Z,77.17
2019-05-29T11:40:43.972Z,77.50
2019-05-29T11:43:10.146Z,77.49
2019-05-29T11:45:36.252Z,77.60
2019-05-29T11:48:05.021Z,77.78
2019-05-29T11:50:30.464Z,77.65
2019-05-29T11:52:56.578Z,77.34
2019-05-29T11:55:22.707Z,77.16
2019-05-29T11:57:48.703Z,77.20
2019-05-29T12:00:20.286Z,77.36
2019-05-29T12:02:45.046Z,77.56
2019-05-29T12:05:12.857Z,77.44
2019-05-29T12:07:39.533Z,77.45
2019-05-29T12:10:07.229Z,77.58
2019-05-29T12:12:33.530Z,77.68
2019-05-29T12:15:09.858Z,77.58
2019-05-29T12:17:27.758Z,77.57
2019-05-29T12:19:54.204Z,77.02
2019-05-29T12:22:20.329Z,77.30
2019-05-29T12:24:46.376Z,77.08
2019-05-29T12:27:12.486Z,77.34
2019-05-29T12:29:38.495Z,77.83
2019-05-29T12:32:09.647Z,78.32
2019-05-29T12:34:32.617Z,77.80
2019-05-29T12:36:59.550Z,78.04
2019-05-29T12:39:25.773Z,78.33
2019-05-29T12:41:53.215Z,78.46
2019-05-29T12:44:19.413Z,78.94
2019-05-29T12:46:45.529Z,79.12
2019-05-29T12:49:11.639Z,79.66
2019-05-29T12:51:37.756Z,80.13
2019-05-29T12:54:05.166Z,80.30
2019-05-29T12:56:31.365Z,80.26
2019-05-29T12:58:58.324Z,80.67
2019-05-29T13:01:24.579Z,81.29
2019-05-29T13:03:50.716Z,81.42
2019-05-29T13:06:16.858Z,81.48
2019-05-29T13:08:42.858Z,81.15
2019-05-29T13:11:08.984Z,81.40
2019-05-29T13:13:35.079Z,81.04
2019-05-29T13:16:01.179Z,80.41
2019-05-29T13:18:27.315Z,80.29
2019-05-29T13:20:54.700Z,80.22
2019-05-29T13:23:20.990Z,80.36
2019-05-29T13:25:46.986Z,80.12
2019-05-29T13:28:13.083Z,80.12
2019-05-29T13:30:39.195Z,80.54
2019-05-29T13:33:08.460Z,80.51
2019-05-29T13:35:33.223Z,80.39
2019-05-29T13:38:01.002Z,79.99
2019-05-29T13:40:27.229Z,80.22
2019-05-29T13:42:53.330Z,80.35
2019-05-29T13:45:19.753Z,80.19
2019-05-29T13:47:45.851Z,80.38
2019-05-29T13:50:13.738Z,80.65
2019-05-29T13:52:39.846Z,80.94
2019-05-29T13:55:07.691Z,80.77
2019-05-29T13:57:33.866Z,80.79
2019-05-29T13:59:59.905Z,80.69
2019-05-29T14:02:26.099Z,80.92
2019-05-29T14:04:52.254Z,80.91
2019-05-29T14:07:18.377Z,81.00
2019-05-29T14:09:44.483Z,81.36
2019-05-29T14:12:10.706Z,81.24
2019-05-29T14:14:36.812Z,81.05
2019-05-29T14:17:04.458Z,81.26
2019-05-29T14:19:30.675Z,81.28
2019-05-29T14:21:56.674Z,81.11
2019-05-29T14:24:29.238Z,81.30
2019-05-29T14:26:51.064Z,81.56
2019-05-29T14:29:17.124Z,81.29
2019-05-29T14:31:43.256Z,81.31
2019-05-29T14:34:09.665Z,81.37
2019-05-29T14:36:35.828Z,81.37
2019-05-29T14:39:05.646Z,81.18
2019-05-29T14:41:31.843Z,81.16
2019-05-29T14:43:57.955Z,81.44
2019-05-29T14:46:23.853Z,81.32
2019-05-29T14:48:49.865Z,81.68
2019-05-29T14:51:15.877Z,81.90
2019-05-29T14:53:41.884Z,82.20
2019-05-29T14:56:08.860Z,82.08
2019-05-29T14:58:34.895Z,81.66
2019-05-29T15:01:00.822Z,81.35
2019-05-29T15:03:26.966Z,81.06
2019-05-29T15:05:52.961Z,80.74
2019-05-29T15:08:19.076Z,81.10
2019-05-29T15:10:45.185Z,81.05
2019-05-29T15:13:13.098Z,81.12
2019-05-29T15:15:39.315Z,80.91
2019-05-29T15:18:06.860Z,81.04
2019-05-29T15:20:33.120Z,80.70
2019-05-29T15:22:59.164Z,80.56
2019-05-29T15:25:25.265Z,80.84
2019-05-29T15:27:51.171Z,80.79
2019-05-29T15:30:23.128Z,80.67
2019-05-29T15:32:47.574Z,80.82
2019-05-29T15:35:19.312Z,80.95
2019-05-29T15:37:43.316Z,80.69
2019-05-29T15:40:10.945Z,80.37
2019-05-29T15:42:37.257Z,80.28
2019-05-29T15:45:04.957Z,80.08
2019-05-29T15:47:31.549Z,80.31
2019-05-29T15:49:57.542Z,80.57
2019-05-29T15:52:23.624Z,80.27
2019-05-29T15:54:49.773Z,79.83
2019-05-29T15:57:15.776Z,80.27
2019-05-29T15:59:41.684Z,80.37
2019-05-29T16:02:07.795Z,80.10
2019-05-29T16:04:33.821Z,79.86
2019-05-29T16:06:59.843Z,80.02
2019-05-29T16:09:25.836Z,80.29
2019-05-29T16:11:51.960Z,80.45
2019-05-29T16:14:19.228Z,80.34
2019-05-29T16:16:45.386Z,79.81
2019-05-29T16:19:12.095Z,79.88
2019-05-29T16:21:38.249Z,79.50
2019-05-29T16:24:04.383Z,79.67
2019-05-29T16:26:30.526Z,79.46
2019-05-29T16:28:56.536Z,79.55
2019-05-29T16:31:23.005Z,79.65
2019-05-29T16:33:49.166Z,79.51
2019-05-29T16:36:16.524Z,79.64
2019-05-29T16:38:42.791Z,79.74
2019-05-29T16:41:08.906Z,79.84
2019-05-29T16:43:34.813Z,79.67
2019-05-29T16:46:00.824Z,79.50
2019-05-29T16:48:26.941Z,80.06
2019-05-29T16:50:53.058Z,79.93
2019-05-29T16:53:19.087Z,80.14
2019-05-29T16:55:53.411Z,80.21
2019-05-29T16:58:13.132Z,80.39
2019-05-29T17:00:39.247Z,80.21
2019-05-29T17:03:05.258Z,80.12
2019-05-29T17:05:31.400Z,80.19
2019-05-29T17:07:57.512Z,80.43
2019-05-29T17:10:34.538Z,80.25
2019-05-29T17:13:00.534Z,80.60
2019-05-29T17:15:26.550Z,80.54
2019-05-29T17:17:52.555Z,80.53
2019-05-29T17:20:37.006Z,80.50
2019-05-29T17:23:03.207Z,80.50
2019-05-29T17:25:29.123Z,80.23
2019-05-29T17:27:55.041Z,80.20
2019-05-29T17:30:25.136Z,80.50
2019-05-29T17:32:51.360Z,80.47
2019-05-29T17:35:17.482Z,80.47
2019-05-29T17:37:43.468Z,80.55
2019-05-29T17:40:09.813Z,80.52
2019-05-29T17:42:35.967Z,80.60
2019-05-29T17:45:03.824Z,80.83
2019-05-29T17:47:29.973Z,80.92
2019-05-29T17:49:55.876Z,80.98
2019-05-29T17:52:22.020Z,81.07
2019-05-29T17:54:48.130Z,81.20
2019-05-29T17:57:14.140Z,81.05
2019-05-29T17:59:40.160Z,81.41
2019-05-29T18:02:06.391Z,81.47
2019-05-29T18:04:32.570Z,81.34
2019-05-29T18:06:58.619Z,80.98
2019-05-29T18:09:27.825Z,81.04
2019-05-29T18:11:52.646Z,81.37
2019-05-29T18:14:19.215Z,81.28
2019-05-29T18:16:45.511Z,81.33
2019-05-29T18:19:11.417Z,81.54
2019-05-29T18:21:37.427Z,81.40
2019-05-29T18:24:05.450Z,81.27
2019-05-29T18:26:45.932Z,81.29
2019-05-29T18:28:59.409Z,81.31
2019-05-29T18:31:26.492Z,81.30
2019-05-29T18:33:52.657Z,80.91
2019-05-29T18:36:18.916Z,80.96
2019-05-29T18:38:45.117Z,81.14
2019-05-29T18:41:11.068Z,81.09
2019-05-29T18:43:37.225Z,80.82
2019-05-29T18:46:03.435Z,80.69
2019-05-29T18:48:29.623Z,80.33
2019-05-29T18:50:55.674Z,80.49
2019-05-29T18:53:22.746Z,80.42
2019-05-29T18:55:49.034Z,80.37
2019-05-29T18:58:15.078Z,80.47
2019-05-29T19:00:41.189Z,80.53
2019-05-29T19:03:07.352Z,80.56
2019-05-29T19:05:33.454Z,80.34
2019-05-29T19:07:59.578Z,80.28
2019-05-29T19:10:25.639Z,80.04
2019-05-29T19:12:51.687Z,80.00
2019-05-29T19:15:18.039Z,80.04
2019-05-29T19:17:44.144Z,80.04
2019-05-29T19:20:10.520Z,80.26
2019-05-29T19:22:36.527Z,80.60
2019-05-29T19:25:06.376Z,81.18
2019-05-29T19:27:40.234Z,81.02
2019-05-29T19:30:00.473Z,80.87
2019-05-29T19:32:27.253Z,80.72
2019-05-29T19:34:53.517Z,80.63
2019-05-29T19:37:19.643Z,81.03
2019-05-29T19:39:45.747Z,81.21
2019-05-29T19:42:11.745Z,81.61
2019-05-29T19:44:37.747Z,81.73
2019-05-29T19:47:03.863Z,81.32
2019-05-29T19:49:30.886Z,81.43
2019-05-29T19:51:56.998Z,81.46
2019-05-29T19:54:23.100Z,81.58
2019-05-29T19:56:49.116Z,81.60
2019-05-29T19:59:15.222Z,81.54
2019-05-29T20:01:41.130Z,81.91
2019-05-29T20:04:08.639Z,82.14
2019-05-29T20:06:35.380Z,82.44
2019-05-29T20:09:01.365Z,82.24
2019-05-29T20:11:27.703Z,81.95
2019-05-29T20:13:53.914Z,81.85
2019-05-29T20:16:19.922Z,81.89
2019-05-29T20:18:46.114Z,82.26
2019-05-29T20:21:12.156Z,82.14
2019-05-29T20:23:38.817Z,81.85
2019-05-29T20:26:05.001Z,81.65
2019-05-29T20:28:32.524Z,81.58
2019-05-29T20:30:58.531Z,82.06
2019-05-29T20:33:24.581Z,82.26
2019-05-29T20:35:50.817Z,82.29
2019-05-29T20:38:16.861Z,82.12
2019-05-29T20:40:42.988Z,82.34
2019-05-29T20:43:09.133Z,82.28
2019-05-29T20:45:35.522Z,82.48
2019-05-29T20:48:01.592Z,82.64
2019-05-29T20:50:27.697Z,83.03
2019-05-29T20:52:53.794Z,82.98
2019-05-29T20:55:19.914Z,83.23
2019-05-29T20:57:45.909Z,83.24
2019-05-29T21:00:14.647Z,83.28
2019-05-29T21:02:40.795Z,83.16
2019-05-29T21:05:07.433Z,82.99
2019-05-29T21:07:34.592Z,83.04
2019-05-29T21:10:00.787Z,83.18
2019-05-29T21:12:26.700Z,83.57
2019-05-29T21:14:52.838Z,83.52
2019-05-29T21:17:18.848Z,83.57
2019-05-29T21:19:46.224Z,83.50
2019-05-29T21:22:12.231Z,83.53
2019-05-29T21:24:38.776Z,83.46
2019-05-29T21:27:04.892Z,83.58
2019-05-29T21:29:31.007Z,83.56
2019-05-29T21:31:57.151Z,83.75
2019-05-29T21:34:23.251Z,84.14
2019-05-29T21:36:49.263Z,84.38
2019-05-29T21:39:15.379Z,84.36
2019-05-29T21:41:42.484Z,83.89
2019-05-29T21:44:08.744Z,83.70
2019-05-29T21:46:34.691Z,83.70
2019-05-29T21:49:00.848Z,83.67
2019-05-29T21:51:26.967Z,83.70
2019-05-29T21:53:53.075Z,84.16
2019-05-29T21:56:19.224Z,84.53
2019-05-29T21:59:00.303Z,84.68
2019-05-29T22:01:13.372Z,84.53
2019-05-29T22:03:40.308Z,84.47
2019-05-29T22:06:06.473Z,84.37
2019-05-29T22:08:32.681Z,84.23
2019-05-29T22:10:59.621Z,84.58
2019-05-29T22:13:25.812Z,84.58
2019-05-29T22:15:52.668Z,84.65
2019-05-29T22:18:18.824Z,84.73
2019-05-29T22:20:45.047Z,84.82
2019-05-29T22:23:11.158Z,85.08
2019-05-29T22:25:37.323Z,85.35
2019-05-29T22:28:03.670Z,85.84
2019-05-29T22:30:29.813Z,85.58
2019-05-29T22:32:55.857Z,85.53
2019-05-29T22:35:21.991Z,85.48
2019-05-29T22:37:48.123Z,85.26
2019-05-29T22:40:14.424Z,84.87
2019-05-29T22:42:40.576Z,84.71
2019-05-29T22:45:06.789Z,84.92
2019-05-29T22:47:32.815Z,84.80
2019-05-29T22:49:59.861Z,84.90
2019-05-29T22:52:25.974Z,84.73
2019-05-29T22:54:52.103Z,84.71
2019-05-29T22:57:18.120Z,84.85
2019-05-29T22:59:44.221Z,84.85
2019-05-29T23:02:10.370Z,84.78
2019-05-29T23:04:36.268Z,84.47
2019-05-29T23:07:02.618Z,84.51
2019-05-29T23:09:28.809Z,84.60
2019-05-29T23:11:54.843Z,84.53
2019-05-29T23:14:20.858Z,84.49
2019-05-29T23:16:46.918Z,84.51
2019-05-29T23:19:12.817Z,84.79
2019-05-29T23:21:38.828Z,84.98
2019-05-29T23:24:04.937Z,84.98
2019-05-29T23:26:31.042Z,85.09
2019-05-29T23:28:57.089Z,85.11
2019-05-29T23:31:23.000Z,85.09
2019-05-29T23:33:49.067Z,85.23
2019-05-29T23:36:15.181Z,85.46
2019-05-29T23:38:41.186Z,85.57
2019-05-29T23:41:07.330Z,85.41
2019-05-29T23:43:33.335Z,85.55
2019-05-29T23:45:59.524Z,85.39
2019-05-29T23:48:25.649Z,85.43
2019-05-29T23:50:51.689Z,85.80
2019-05-29T23:53:17.642Z,85.85
2019-05-29T23:55:43.847Z,85.89
2019-05-29T23:58:09.858Z,85.67
